Time;durP1;ratioP1;P1;durP2;ratioP2;P2;SDS_P1;SDS_P2;PMS_P1;PMS_P2;Temp;Humidity;BMP_temperature;BMP_pressure;BME280_temperature;BME280_humidity;BME280_pressure;Samples;Min_cycle;Max_cycle;Signal;HPM_P1;HPM_P2
2023/08/29 00:00:58;;;;;;;9.45;5.50;;;;;;;15.60;100.00;100887.75;4995787;28;20049;-67
2023/08/29 00:03:27;;;;;;;8.25;5.10;;;;;;;15.58;100.00;100892.38;4997293;28;20042;-68
2023/08/29 00:06:00;;;;;;;9.20;6.40;;;;;;;15.57;100.00;100877.66;5000742;28;20591;-67
2023/08/29 00:08:25;;;;;;;8.55;5.78;;;;;;;15.53;100.00;100884.25;5003079;28;20034;-67
2023/08/29 00:10:57;;;;;;;10.13;5.75;;;;;;;15.51;100.00;100875.81;4998266;28;20048;-67
2023/08/29 00:13:23;;;;;;;9.75;5.32;;;;;;;15.49;100.00;100877.78;5001252;28;20060;-67
2023/08/29 00:15:49;;;;;;;9.50;5.22;;;;;;;15.49;100.00;100875.19;4972953;28;20091;-68
2023/08/29 00:18:15;;;;;;;7.00;5.10;;;;;;;15.48;100.00;100876.16;5002772;28;20033;-67
2023/08/29 00:20:40;;;;;;;13.93;6.20;;;;;;;15.45;100.00;100872.13;4984719;28;20038;-68
2023/08/29 00:23:09;;;;;;;5.38;4.40;;;;;;;15.41;100.00;100872.69;4991096;28;20036;-68
2023/08/29 00:25:35;;;;;;;8.95;5.57;;;;;;;15.37;100.00;100869.66;4990347;28;20030;-68
2023/08/29 00:28:00;;;;;;;8.73;4.80;;;;;;;15.34;100.00;100870.00;5015122;28;20040;-67
2023/08/29 00:30:26;;;;;;;6.55;4.35;;;;;;;15.31;100.00;100867.75;4980119;28;20033;-67
2023/08/29 00:32:51;;;;;;;6.72;5.13;;;;;;;15.32;100.00;100869.38;5000500;28;20041;-67
2023/08/29 00:35:17;;;;;;;5.85;4.75;;;;;;;15.31;100.00;100865.97;4982396;28;20553;-67
2023/08/29 00:37:43;;;;;;;6.28;4.43;;;;;;;15.30;100.00;100872.19;5013491;23;20048;-67
2023/08/29 00:40:10;;;;;;;7.88;5.13;;;;;;;15.31;100.00;100873.81;4977832;28;20038;-67
2023/08/29 00:42:35;;;;;;;6.47;4.55;;;;;;;15.29;100.00;100865.31;4993739;28;20046;-67
2023/08/29 00:45:01;;;;;;;11.30;5.53;;;;;;;15.24;100.00;100864.25;4979651;28;20064;-66
2023/08/29 00:47:27;;;;;;;7.97;4.88;;;;;;;15.18;100.00;100868.41;4982082;28;20037;-67
2023/08/29 00:49:54;;;;;;;6.65;4.68;;;;;;;15.14;100.00;100870.63;4981977;28;20033;-67
2023/08/29 00:52:20;;;;;;;8.90;5.93;;;;;;;15.13;100.00;100876.03;4969873;28;20038;-67
2023/08/29 00:54:46;;;;;;;6.90;5.10;;;;;;;15.11;100.00;100872.78;4983703;28;20041;-67
2023/08/29 00:57:12;;;;;;;6.70;5.18;;;;;;;15.08;100.00;100884.38;4982832;28;20050;-67
2023/08/29 00:59:37;;;;;;;5.65;4.57;;;;;;;15.09;100.00;100887.84;4981047;28;20043;-67
2023/08/29 01:02:04;;;;;;;6.50;4.78;;;;;;;15.09;100.00;100896.47;4985097;28;20091;-67
2023/08/29 01:04:30;;;;;;;7.90;4.57;;;;;;;15.08;100.00;100891.41;4987468;28;20045;-67
2023/08/29 01:06:57;;;;;;;5.22;4.20;;;;;;;15.07;100.00;100890.63;4999649;28;20042;-67
2023/08/29 01:09:23;;;;;;;5.60;4.28;;;;;;;15.05;100.00;100881.34;4966993;28;20408;-66
2023/08/29 01:12:02;;;;;;;4.30;3.83;;;;;;;15.02;100.00;100890.34;5001881;28;20038;-67
2023/08/29 01:14:54;;;;;;;4.82;3.60;;;;;;;14.95;100.00;100879.00;4987338;28;20788;-67
2023/08/29 01:17:44;;;;;;;6.43;4.32;;;;;;;14.90;100.00;100876.97;4986722;28;20025;-66
2023/08/29 01:20:12;;;;;;;5.55;4.13;;;;;;;14.88;100.00;100876.34;4985614;28;20030;-66
2023/08/29 01:22:49;;;;;;;5.63;4.78;;;;;;;14.83;100.00;100883.91;5001744;28;20149;-67
2023/08/29 01:25:26;;;;;;;4.68;3.90;;;;;;;14.82;100.00;100884.88;5009194;28;20121;-67
2023/08/29 01:27:55;;;;;;;7.38;4.35;;;;;;;14.78;100.00;100899.28;4988602;28;20135;-67
2023/08/29 01:30:22;;;;;;;5.05;3.47;;;;;;;14.71;100.00;100901.00;4981377;28;20533;-67
2023/08/29 01:32:48;;;;;;;5.88;3.90;;;;;;;14.66;100.00;100896.31;4996623;28;20432;-67
2023/08/29 01:35:15;;;;;;;5.30;4.13;;;;;;;14.64;100.00;100894.91;5001064;28;20143;-67
2023/08/29 01:37:41;;;;;;;4.65;3.55;;;;;;;14.58;100.00;100899.03;4987873;28;20117;-68
2023/08/29 01:40:07;;;;;;;5.75;3.88;;;;;;;14.54;100.00;100901.16;4985173;28;20172;-67
2023/08/29 01:42:36;;;;;;;6.15;4.40;;;;;;;14.54;100.00;100905.53;4986027;28;20284;-67
2023/08/29 01:45:02;;;;;;;8.73;4.43;;;;;;;14.53;100.00;100911.78;4986655;28;20091;-67
2023/08/29 01:47:28;;;;;;;4.75;3.72;;;;;;;14.48;100.00;100920.13;4983701;28;20072;-67
2023/08/29 01:49:54;;;;;;;9.35;4.78;;;;;;;14.45;100.00;100922.28;5002595;28;20030;-67
2023/08/29 01:52:19;;;;;;;12.27;4.53;;;;;;;14.43;100.00;100924.25;4985316;28;20542;-67
2023/08/29 01:54:45;;;;;;;6.78;4.43;;;;;;;14.40;100.00;100928.84;4983859;28;20034;-67
2023/08/29 01:57:15;;;;;;;9.98;4.80;;;;;;;14.35;100.00;100930.34;4979216;28;20386;-67
2023/08/29 01:59:43;;;;;;;8.10;4.60;;;;;;;14.28;100.00;100934.66;4989493;28;20029;-67
2023/08/29 02:02:09;;;;;;;6.25;3.85;;;;;;;14.21;100.00;100930.16;4981982;28;20389;-67
2023/08/29 02:04:35;;;;;;;7.43;5.18;;;;;;;14.19;100.00;100944.38;4984389;28;20049;-67
2023/08/29 02:07:00;;;;;;;6.88;4.50;;;;;;;14.17;100.00;100941.13;4983015;28;20038;-67
2023/08/29 02:09:26;;;;;;;6.95;4.57;;;;;;;14.15;100.00;100941.31;4987124;28;20042;-67
2023/08/29 02:11:51;;;;;;;5.85;4.38;;;;;;;14.17;100.00;100944.53;5000047;28;20126;-67
2023/08/29 02:14:16;;;;;;;6.60;4.32;;;;;;;14.15;100.00;100943.91;5001971;28;20532;-67
2023/08/29 02:16:42;;;;;;;6.32;4.28;;;;;;;14.14;100.00;100944.88;4987559;28;20061;-67
2023/08/29 02:19:13;;;;;;;6.30;4.60;;;;;;;14.14;100.00;100944.06;4999150;28;20117;-67
2023/08/29 02:21:42;;;;;;;7.68;4.55;;;;;;;14.12;100.00;100956.47;4984261;28;20041;-67
2023/08/29 02:24:08;;;;;;;7.22;4.65;;;;;;;14.07;100.00;100956.19;4982634;28;20034;-67
2023/08/29 02:26:33;;;;;;;6.32;4.50;;;;;;;14.03;100.00;100960.94;4987906;28;20034;-67
2023/08/29 02:28:59;;;;;;;6.70;4.65;;;;;;;14.01;100.00;100955.94;5000641;28;20034;-67
2023/08/29 02:31:24;;;;;;;9.20;5.25;;;;;;;14.01;100.00;100948.09;4983932;28;20037;-67
2023/08/29 02:33:51;;;;;;;5.15;4.43;;;;;;;14.00;100.00;100950.88;5002593;28;20045;-67
2023/08/29 02:36:17;;;;;;;6.05;4.18;;;;;;;13.99;100.00;100952.69;4985152;28;20064;-68
2023/08/29 02:38:43;;;;;;;5.85;4.38;;;;;;;13.99;100.00;100963.09;4985902;28;20062;-68
2023/08/29 02:41:11;;;;;;;5.50;4.28;;;;;;;13.98;100.00;100952.84;4984104;28;20049;-68
2023/08/29 02:43:38;;;;;;;7.38;4.43;;;;;;;13.97;100.00;100951.22;4983497;28;20088;-67
2023/08/29 02:46:03;;;;;;;8.25;4.47;;;;;;;13.97;100.00;100948.59;4981599;28;20036;-68
2023/08/29 02:48:29;;;;;;;6.95;4.72;;;;;;;13.94;100.00;100949.78;5003130;28;20480;-67
2023/08/29 02:50:54;;;;;;;8.25;5.25;;;;;;;13.87;100.00;100950.66;4983730;28;20488;-68
2023/08/29 02:53:21;;;;;;;5.60;4.15;;;;;;;13.77;100.00;100943.88;4987107;28;20124;-67
2023/08/29 02:55:49;;;;;;;7.25;4.50;;;;;;;13.72;100.00;100940.97;4985080;28;20037;-68
2023/08/29 02:58:15;;;;;;;9.20;5.38;;;;;;;13.69;100.00;100930.06;4999409;28;20033;-67
2023/08/29 03:00:40;;;;;;;7.63;4.70;;;;;;;13.69;100.00;100933.47;4982019;28;20404;-68
2023/08/29 03:03:06;;;;;;;8.60;4.78;;;;;;;13.69;100.00;100930.88;4981617;28;20044;-67
2023/08/29 03:05:32;;;;;;;7.13;4.57;;;;;;;13.71;100.00;100939.34;4984131;28;20033;-68
2023/08/29 03:08:03;;;;;;;5.53;4.30;;;;;;;13.72;100.00;100927.94;5002500;28;20041;-67
2023/08/29 03:10:30;;;;;;;8.30;5.13;;;;;;;13.72;100.00;100927.94;4983437;28;20035;-67
2023/08/29 03:12:55;;;;;;;6.75;5.63;;;;;;;13.71;100.00;100922.88;5001278;28;20038;-68
2023/08/29 03:15:21;;;;;;;8.13;5.38;;;;;;;13.68;100.00;100918.84;4970344;28;20365;-68
2023/08/29 03:17:47;;;;;;;8.50;5.07;;;;;;;13.66;100.00;100909.59;4967558;28;20045;-67
2023/08/29 03:20:13;;;;;;;7.88;5.40;;;;;;;13.63;100.00;100908.94;5001171;28;20032;-67
2023/08/29 03:22:38;;;;;;;7.20;5.03;;;;;;;13.62;100.00;100896.09;4981881;28;20030;-67
2023/08/29 03:25:05;;;;;;;7.28;5.38;;;;;;;13.62;100.00;100890.88;4981755;28;21339;-67
2023/08/29 03:27:31;;;;;;;8.93;4.65;;;;;;;13.61;100.00;100890.06;4978460;28;20045;-67
2023/08/29 03:29:58;;;;;;;10.75;5.55;;;;;;;13.60;100.00;100885.03;4966937;28;20423;-68
2023/08/29 03:32:23;;;;;;;7.68;4.70;;;;;;;13.60;100.00;100874.63;4969584;28;20738;-67
2023/08/29 03:34:54;;;;;;;11.02;6.13;;;;;;;13.59;100.00;100870.38;4979022;28;20030;-68
2023/08/29 03:37:19;;;;;;;7.88;5.75;;;;;;;13.60;100.00;100867.59;4997232;28;20030;-67
2023/08/29 03:39:45;;;;;;;9.18;6.07;;;;;;;13.62;100.00;100878.66;4971628;28;20085;-68
2023/08/29 03:42:11;;;;;;;9.35;4.82;;;;;;;13.63;100.00;100875.06;4966279;28;20396;-68
2023/08/29 03:44:36;;;;;;;7.78;5.43;;;;;;;13.65;100.00;100858.47;4984238;28;20030;-68
2023/08/29 03:47:01;;;;;;;8.35;5.03;;;;;;;13.66;100.00;100847.88;4979462;28;20519;-68
2023/08/29 03:49:28;;;;;;;11.68;5.82;;;;;;;13.67;100.00;100849.47;4998921;28;20037;-67
2023/08/29 03:51:55;;;;;;;10.85;5.20;;;;;;;13.69;100.00;100844.09;4995354;28;20559;-68
2023/08/29 03:54:21;;;;;;;7.38;5.57;;;;;;;13.67;100.00;100852.06;4997152;28;20037;-68
2023/08/29 03:56:48;;;;;;;9.00;5.65;;;;;;;13.67;100.00;100852.06;4980265;28;20033;-68
2023/08/29 03:59:14;;;;;;;10.43;5.72;;;;;;;13.67;100.00;100852.06;4983159;28;20083;-67
2023/08/29 04:01:40;;;;;;;9.60;5.72;;;;;;;13.67;100.00;100857.28;4967252;28;20038;-67
2023/08/29 04:04:06;;;;;;;7.68;5.55;;;;;;;13.67;100.00;100856.47;4997491;28;20045;-68
2023/08/29 04:06:34;;;;;;;9.02;5.95;;;;;;;13.67;100.00;100846.06;4983405;28;20038;-67
2023/08/29 04:09:00;;;;;;;8.38;6.10;;;;;;;13.65;100.00;100848.84;4968056;28;20044;-68
2023/08/29 04:11:26;;;;;;;8.90;5.88;;;;;;;13.62;100.00;100847.41;4985434;28;20029;-68
2023/08/29 04:13:52;;;;;;;9.23;6.38;;;;;;;13.63;100.00;100851.59;4988147;28;20029;-68
2023/08/29 04:16:17;;;;;;;14.80;5.57;;;;;;;13.63;100.00;100851.59;4986445;28;20044;-68
2023/08/29 04:18:43;;;;;;;8.48;6.18;;;;;;;13.63;100.00;100856.81;4974480;28;20099;-68
2023/08/29 04:21:09;;;;;;;11.25;6.28;;;;;;;13.62;100.00;100860.44;5001866;28;20054;-68
2023/08/29 04:23:34;;;;;;;13.90;6.15;;;;;;;13.61;100.00;100861.41;5003718;28;20045;-67
2023/08/29 04:26:01;;;;;;;8.38;5.60;;;;;;;13.60;100.00;100857.19;5001369;28;20041;-68
2023/08/29 04:28:27;;;;;;;8.50;6.38;;;;;;;13.60;100.00;100864.19;4987771;28;20069;-67
2023/08/29 04:30:52;;;;;;;11.30;5.45;;;;;;;13.60;100.00;100861.59;4984644;28;20476;-67
2023/08/29 04:33:18;;;;;;;11.27;6.38;;;;;;;13.59;100.00;100862.56;4989477;28;20037;-67
2023/08/29 04:35:44;;;;;;;8.02;5.65;;;;;;;13.59;100.00;100870.38;4984858;28;20038;-68
2023/08/29 04:38:09;;;;;;;11.00;6.90;;;;;;;13.58;100.00;100873.97;4984772;28;20083;-67
2023/08/29 04:40:35;;;;;;;11.63;6.47;;;;;;;13.57;100.00;100878.38;4987424;28;20104;-68
2023/08/29 04:43:01;;;;;;;8.18;6.68;;;;;;;13.57;100.00;100877.56;4986422;28;20048;-67
2023/08/29 04:45:27;;;;;;;10.20;6.88;;;;;;;13.55;100.00;100876.94;4985005;28;20038;-67
2023/08/29 04:47:53;;;;;;;9.50;6.90;;;;;;;13.53;100.00;100881.50;4984083;28;20044;-68
2023/08/29 04:50:20;;;;;;;11.75;6.28;;;;;;;13.50;100.00;100882.63;5006006;28;20029;-67
2023/08/29 04:52:45;;;;;;;11.40;6.95;;;;;;;13.47;100.00;100883.00;4987816;28;20045;-68
2023/08/29 04:55:11;;;;;;;9.60;7.00;;;;;;;13.46;100.00;100894.41;4972174;28;20420;-67
2023/08/29 04:57:37;;;;;;;13.52;7.25;;;;;;;13.44;100.00;100891.97;4985806;28;20033;-68
2023/08/29 05:00:04;;;;;;;9.18;6.75;;;;;;;13.45;100.00;100892.78;4986712;28;20073;-68
2023/08/29 05:02:30;;;;;;;9.10;6.18;;;;;;;13.47;100.00;100892.59;4983220;28;20726;-68
2023/08/29 05:04:57;;;;;;;8.63;6.85;;;;;;;13.49;100.00;100890.66;4971674;28;20037;-67
2023/08/29 05:07:23;;;;;;;15.40;8.10;;;;;;;13.49;100.00;100890.66;4985442;28;20125;-67
2023/08/29 05:09:49;;;;;;;9.90;8.00;;;;;;;13.46;100.00;100891.00;4973383;28;20030;-67
2023/08/29 05:12:16;;;;;;;11.52;7.38;;;;;;;13.42;100.00;100883.50;4970147;28;20463;-67
2023/08/29 05:14:41;;;;;;;10.85;6.70;;;;;;;13.45;100.00;100884.97;5004225;28;20080;-67
2023/08/29 05:17:09;;;;;;;10.30;7.03;;;;;;;13.47;100.00;100882.16;4998935;28;20065;-67
2023/08/29 05:19:35;;;;;;;11.95;7.22;;;;;;;13.47;100.00;100880.41;4971193;28;20150;-67
2023/08/29 05:22:00;;;;;;;12.25;7.55;;;;;;;13.51;100.00;100886.06;4985238;28;20416;-67
2023/08/29 05:24:26;;;;;;;9.93;7.20;;;;;;;13.52;100.00;100872.06;4988289;28;20099;-67
2023/08/29 05:26:51;;;;;;;15.82;8.73;;;;;;;13.53;100.00;100882.31;5002508;28;20089;-67
2023/08/29 05:29:17;;;;;;;12.73;7.63;;;;;;;13.54;100.00;100883.09;5003090;28;20489;-67
2023/08/29 05:31:42;;;;;;;11.70;8.10;;;;;;;13.54;100.00;100883.09;4988176;28;20042;-67
2023/08/29 05:34:08;;;;;;;13.80;8.32;;;;;;;13.55;100.00;100884.75;5001642;28;20030;-67
2023/08/29 05:36:34;;;;;;;13.60;7.78;;;;;;;13.54;100.00;100883.94;4982299;28;20042;-67
2023/08/29 05:38:59;;;;;;;14.05;9.45;;;;;;;13.54;100.00;100878.72;4985584;28;20056;-67
2023/08/29 05:41:25;;;;;;;12.48;7.50;;;;;;;13.55;100.00;100879.53;4981310;28;20038;-67
2023/08/29 05:43:50;;;;;;;14.57;8.60;;;;;;;13.54;100.00;100881.34;4997835;28;20096;-67
2023/08/29 05:46:16;;;;;;;11.90;7.65;;;;;;;13.55;100.00;100877.72;4980244;28;20038;-67
2023/08/29 05:48:41;;;;;;;12.45;9.23;;;;;;;13.59;100.00;100886.00;5003176;28;23213;-68
2023/08/29 05:51:07;;;;;;;11.15;7.75;;;;;;;13.58;100.00;100879.16;4999364;28;20077;-68
2023/08/29 05:53:32;;;;;;;12.77;8.98;;;;;;;13.59;100.00;100883.41;4971016;28;20033;-66
2023/08/29 05:55:58;;;;;;;15.82;10.65;;;;;;;13.60;100.00;100880.63;4979993;28;20045;-68
2023/08/29 05:58:24;;;;;;;12.65;9.10;;;;;;;13.62;100.00;100876.06;5000457;28;20068;-67
2023/08/29 06:00:51;;;;;;;15.93;10.32;;;;;;;13.65;100.00;100872.28;4982763;28;20038;-67
2023/08/29 06:03:16;;;;;;;14.32;9.38;;;;;;;13.67;100.00;100880.72;5000564;28;20065;-67
2023/08/29 06:05:42;;;;;;;13.45;9.40;;;;;;;13.68;100.00;100874.56;5002522;28;20632;-68
2023/08/29 06:08:08;;;;;;;15.40;9.60;;;;;;;13.71;100.00;100878.59;4985696;28;20034;-67
2023/08/29 06:10:34;;;;;;;12.15;8.63;;;;;;;13.71;100.00;100871.59;4982228;28;20036;-67
2023/08/29 06:12:59;;;;;;;13.57;9.05;;;;;;;13.75;100.00;100878.09;4983637;28;20030;-67
2023/08/29 06:15:25;;;;;;;15.77;10.07;;;;;;;13.79;100.00;100875.94;4983624;28;20057;-67
2023/08/29 06:17:51;;;;;;;15.90;9.75;;;;;;;13.83;100.00;100864.97;4986209;28;20037;-68
2023/08/29 06:20:17;;;;;;;13.43;9.30;;;;;;;13.87;100.00;100864.63;4988196;28;20034;-67
2023/08/29 06:22:43;;;;;;;11.98;9.60;;;;;;;13.91;100.00;100865.91;4998252;28;20030;-67
2023/08/29 06:25:10;;;;;;;14.18;8.85;;;;;;;13.94;100.00;100868.97;5002291;28;20084;-67
2023/08/29 06:27:36;;;;;;;14.82;10.23;;;;;;;13.99;100.00;100873.63;4975299;28;20506;-67
2023/08/29 06:30:02;;;;;;;14.98;10.80;;;;;;;14.04;100.00;100868.72;5000618;28;20034;-67
2023/08/29 06:32:29;;;;;;;14.40;10.73;;;;;;;14.08;100.00;100877.00;4979140;28;20453;-67
2023/08/29 06:34:55;;;;;;;21.95;12.13;;;;;;;14.12;100.00;100878.25;4999579;28;20049;-67
2023/08/29 06:37:20;;;;;;;16.38;10.73;;;;;;;14.14;100.00;100887.50;4997260;28;20050;-67
2023/08/29 06:39:46;;;;;;;13.23;9.90;;;;;;;14.18;100.00;100886.19;5012804;23;20049;-66
2023/08/29 06:42:11;;;;;;;17.13;10.85;;;;;;;14.26;100.00;100889.69;4998030;28;20503;-66
2023/08/29 06:44:37;;;;;;;16.08;11.23;;;;;;;14.29;100.00;100890.16;5003044;28;20021;-65
2023/08/29 06:47:02;;;;;;;19.90;11.90;;;;;;;14.34;100.00;100892.25;4984107;28;20523;-65
2023/08/29 06:49:28;;;;;;;16.42;10.27;;;;;;;14.41;100.00;100890.53;4992830;28;20121;-66
2023/08/29 06:51:53;;;;;;;17.13;11.55;;;;;;;14.50;100.00;100899.88;4989665;28;20099;-66
2023/08/29 06:54:19;;;;;;;18.52;9.60;;;;;;;14.56;100.00;100896.56;4984137;28;20030;-65
2023/08/29 06:56:44;;;;;;;17.30;10.30;;;;;;;14.65;100.00;100894.69;4967800;28;20435;-66
2023/08/29 06:59:13;;;;;;;16.10;9.88;;;;;;;14.68;100.00;100896.97;4963312;28;20038;-65
2023/08/29 07:01:38;;;;;;;18.08;9.18;;;;;;;14.73;100.00;100901.63;4984660;28;20042;-66
2023/08/29 07:04:04;;;;;;;17.75;9.35;;;;;;;14.76;100.00;100891.63;4970320;28;20041;-65
2023/08/29 07:06:30;;;;;;;12.23;8.88;;;;;;;14.84;100.00;100902.97;4964743;28;20042;-66
2023/08/29 07:08:55;;;;;;;16.02;9.90;;;;;;;14.87;100.00;100900.00;4966352;28;20038;-66
2023/08/29 07:11:21;;;;;;;11.65;8.73;;;;;;;14.88;100.00;100899.00;4967724;28;20057;-66
2023/08/29 07:13:46;;;;;;;12.52;8.88;;;;;;;14.93;100.00;100896.66;4968119;28;20045;-65
2023/08/29 07:16:12;;;;;;;13.50;9.93;;;;;;;15.01;100.00;100895.75;4968452;28;20046;-66
2023/08/29 07:18:37;;;;;;;12.50;8.30;;;;;;;15.06;100.00;100896.03;4983789;28;20030;-66
2023/08/29 07:21:03;;;;;;;16.00;10.60;;;;;;;15.05;100.00;100899.59;4985363;28;20512;-66
2023/08/29 07:23:28;;;;;;;18.30;10.02;;;;;;;15.16;100.00;100899.97;4984624;28;20121;-65
2023/08/29 07:25:54;;;;;;;14.43;9.85;;;;;;;15.29;100.00;100896.66;4986615;28;20053;-66
2023/08/29 07:28:19;;;;;;;13.85;9.23;;;;;;;15.40;100.00;100903.22;4981656;28;20042;-66
2023/08/29 07:30:50;;;;;;;12.68;8.43;;;;;;;15.37;100.00;100898.38;4986498;28;20408;-66
2023/08/29 07:33:17;;;;;;;16.55;9.48;;;;;;;15.40;100.00;100898.00;4983999;28;20030;-65
2023/08/29 07:35:43;;;;;;;13.38;8.85;;;;;;;15.60;100.00;100897.41;4983551;28;20030;-66
2023/08/29 07:38:09;;;;;;;14.00;8.55;;;;;;;15.62;100.00;100896.22;4986209;28;20026;-66
2023/08/29 07:40:35;;;;;;;13.93;8.25;;;;;;;15.73;100.00;100893.13;4967118;28;21024;-66
2023/08/29 07:43:07;;;;;;;15.40;8.10;;;;;;;15.88;100.00;100893.06;4966843;28;20242;-66
2023/08/29 07:45:33;;;;;;;11.85;7.22;;;;;;;15.99;100.00;100890.91;4953837;28;20043;-66
2023/08/29 07:47:59;;;;;;;10.45;6.97;;;;;;;16.06;100.00;100886.56;4984664;28;20046;-65
2023/08/29 07:50:25;;;;;;;9.20;6.75;;;;;;;16.18;100.00;100890.28;4986024;28;20022;-65
2023/08/29 07:52:51;;;;;;;14.88;6.55;;;;;;;16.25;100.00;100898.16;4986198;28;20135;-66
2023/08/29 07:55:16;;;;;;;12.77;8.07;;;;;;;16.35;100.00;100899.44;4991603;28;20071;-65
2023/08/29 07:57:43;;;;;;;13.88;8.38;;;;;;;16.42;100.00;100890.81;4975206;28;20030;-66
2023/08/29 08:00:10;;;;;;;8.63;6.07;;;;;;;16.49;100.00;100894.28;4986023;28;20052;-66
2023/08/29 08:02:39;;;;;;;12.70;7.57;;;;;;;16.68;100.00;100892.78;4987772;28;20054;-65
2023/08/29 08:05:12;;;;;;;15.35;7.32;;;;;;;16.76;100.00;100889.97;4985368;28;20694;-65
2023/08/29 08:07:38;;;;;;;11.32;6.45;;;;;;;16.88;100.00;100893.72;4985005;28;20042;-66
2023/08/29 08:10:05;;;;;;;9.20;6.38;;;;;;;16.95;98.90;100898.97;4987715;28;20045;-65
2023/08/29 08:12:31;;;;;;;7.88;6.13;;;;;;;16.97;97.23;100899.59;4986547;28;20049;-66
2023/08/29 08:14:56;;;;;;;8.15;5.55;;;;;;;17.14;96.48;100900.06;4984887;28;20100;-65
2023/08/29 08:17:22;;;;;;;8.80;5.32;;;;;;;17.45;95.12;100899.53;4984138;28;20492;-66
2023/08/29 08:19:48;;;;;;;8.25;5.05;;;;;;;17.73;92.90;100895.13;4990706;28;20041;-66
2023/08/29 08:22:13;;;;;;;10.35;6.07;;;;;;;18.02;91.45;100897.38;4987870;28;20572;-66
2023/08/29 08:24:40;;;;;;;12.30;5.30;;;;;;;18.16;89.85;100899.97;4966133;28;20030;-66
2023/08/29 08:27:07;;;;;;;9.63;6.30;;;;;;;18.19;88.74;100886.47;4968889;28;20050;-66
2023/08/29 08:29:33;;;;;;;10.00;7.03;;;;;;;18.36;87.44;100886.84;4967980;28;20554;-67
2023/08/29 08:31:58;;;;;;;8.13;5.20;;;;;;;18.74;87.47;100886.13;4983047;28;20034;-65
2023/08/29 08:34:24;;;;;;;9.02;5.63;;;;;;;18.83;85.14;100884.91;4986539;28;20030;-65
2023/08/29 08:36:49;;;;;;;5.88;4.15;;;;;;;19.03;84.68;100883.00;4969729;28;20043;-65
2023/08/29 08:39:15;;;;;;;9.18;4.95;;;;;;;19.10;83.31;100882.97;4968342;28;20038;-65
2023/08/29 08:41:40;;;;;;;5.93;3.47;;;;;;;19.24;80.53;100886.31;4986438;28;20047;-67
2023/08/29 08:44:09;;;;;;;8.63;3.83;;;;;;;19.48;76.92;100879.50;4986001;28;20037;-66
2023/08/29 08:46:35;;;;;;;6.03;3.33;;;;;;;19.59;75.59;100878.81;4966038;28;20066;-65
2023/08/29 08:49:01;;;;;;;6.30;3.33;;;;;;;19.80;74.71;100882.13;4985209;28;20037;-66
2023/08/29 08:51:29;;;;;;;4.45;3.35;;;;;;;19.96;73.92;100888.66;4988993;28;20038;-66
2023/08/29 08:53:55;;;;;;;9.55;3.83;;;;;;;20.13;73.55;100889.72;4989475;28;20113;-66
2023/08/29 08:56:22;;;;;;;7.25;4.10;;;;;;;20.43;74.78;100889.81;4985414;28;20105;-66
2023/08/29 08:58:49;;;;;;;4.57;3.10;;;;;;;20.65;73.08;100888.63;4986165;28;20515;-65
2023/08/29 09:01:15;;;;;;;5.85;3.47;;;;;;;20.98;70.57;100890.81;4983780;28;20046;-65
2023/08/29 09:03:41;;;;;;;2.45;2.08;;;;;;;20.61;67.97;100891.69;4951088;28;20042;-65
2023/08/29 09:06:09;;;;;;;2.45;1.88;;;;;;;20.75;68.49;100892.31;4969494;28;20077;-66
2023/08/29 09:08:36;;;;;;;3.40;2.10;;;;;;;20.90;66.57;100893.78;4973118;28;20117;-65
2023/08/29 09:11:03;;;;;;;4.45;1.60;;;;;;;21.08;63.97;100885.84;4971814;28;20045;-65
2023/08/29 09:13:29;;;;;;;2.95;2.08;;;;;;;20.92;63.65;100881.19;4956663;28;20150;-66
2023/08/29 09:15:58;;;;;;;4.70;1.85;;;;;;;21.17;63.51;100884.50;4984434;28;20125;-66
2023/08/29 09:18:31;;;;;;;3.47;2.40;;;;;;;21.22;66.32;100885.66;4990987;28;20112;-66
2023/08/29 09:21:00;;;;;;;6.32;2.80;;;;;;;21.50;66.72;100890.34;4983459;28;20049;-66
2023/08/29 09:23:28;;;;;;;5.05;2.70;;;;;;;21.60;65.90;100889.78;4969170;28;20125;-66
2023/08/29 09:25:58;;;;;;;4.78;2.17;;;;;;;21.71;64.55;100889.00;4985251;28;20052;-66
2023/08/29 09:28:28;;;;;;;3.80;2.88;;;;;;;21.69;63.50;100893.72;4982753;28;20031;-66
2023/08/29 09:30:54;;;;;;;3.50;2.78;;;;;;;21.80;64.04;100885.00;4985448;28;20034;-66
2023/08/29 09:33:24;;;;;;;6.75;2.03;;;;;;;21.53;64.84;100895.97;4966507;28;20030;-66
2023/08/29 09:35:49;;;;;;;11.52;3.33;;;;;;;21.41;65.14;100886.41;4966834;28;20566;-66
2023/08/29 09:38:18;;;;;;;5.47;2.05;;;;;;;21.06;64.28;100882.63;4968248;28;20038;-66
2023/08/29 09:40:51;;;;;;;3.63;2.60;;;;;;;20.98;67.11;100881.13;4952212;28;20031;-66
2023/08/29 09:43:17;;;;;;;5.35;2.67;;;;;;;20.98;65.35;100885.56;4969917;28;20416;-66
2023/08/29 09:45:49;;;;;;;2.25;1.92;;;;;;;20.99;65.95;100881.91;4986809;28;20042;-66
2023/08/29 09:48:15;;;;;;;2.42;1.80;;;;;;;20.98;67.60;100886.38;4949697;28;20050;-66
2023/08/29 09:50:41;;;;;;;3.47;2.28;;;;;;;20.63;67.60;100880.94;4966263;28;20036;-67
2023/08/29 09:53:08;;;;;;;3.72;2.15;;;;;;;20.42;69.86;100882.16;4968928;28;20497;-66
2023/08/29 09:55:39;;;;;;;5.35;1.65;;;;;;;20.34;69.68;100878.00;4968097;28;20042;-67
2023/08/29 09:58:06;;;;;;;4.55;2.35;;;;;;;20.13;69.36;100881.81;4984793;28;20107;-66
2023/08/29 10:00:34;;;;;;;6.25;1.88;;;;;;;20.21;69.94;100878.91;4985458;28;20022;-67
2023/08/29 10:03:03;;;;;;;4.82;2.00;;;;;;;20.40;72.37;100878.94;4984523;28;20504;-65
2023/08/29 10:05:33;;;;;;;3.85;1.88;;;;;;;20.39;69.45;100877.31;4985321;28;20052;-65
2023/08/29 10:08:21;;;;;;;8.05;2.75;;;;;;;20.43;70.31;100881.13;4968234;28;20076;-66
2023/08/29 10:10:48;;;;;;;3.28;2.42;;;;;;;20.44;69.79;100869.56;4977301;28;20117;-66
2023/08/29 10:13:14;;;;;;;4.82;2.17;;;;;;;20.67;69.80;100871.56;4980538;28;20131;-66
2023/08/29 10:15:43;;;;;;;5.68;3.10;;;;;;;20.84;69.16;100866.50;4966907;28;20038;-67
2023/08/29 10:18:10;;;;;;;4.95;2.60;;;;;;;20.66;67.68;100869.94;4986768;28;20053;-66
2023/08/29 10:20:37;;;;;;;5.47;2.92;;;;;;;20.68;68.16;100873.19;4953600;28;20480;-66
2023/08/29 10:23:05;;;;;;;5.28;2.42;;;;;;;20.74;67.24;100869.66;4987197;28;20097;-66
2023/08/29 10:25:31;;;;;;;4.20;2.38;;;;;;;21.12;66.50;100860.63;4982649;28;20061;-66
2023/08/29 10:27:57;;;;;;;4.50;2.40;;;;;;;21.05;65.12;100869.66;4986770;28;20050;-66
2023/08/29 10:30:25;;;;;;;5.40;3.05;;;;;;;21.03;63.61;100864.63;4971614;28;20034;-66
2023/08/29 10:32:53;;;;;;;3.28;1.80;;;;;;;21.24;63.39;100852.75;4967101;28;20044;-66
2023/08/29 10:35:22;;;;;;;4.70;2.40;;;;;;;21.40;61.78;100846.03;4964185;28;20504;-66
2023/08/29 10:37:54;;;;;;;5.18;2.08;;;;;;;21.22;62.09;100846.13;4979269;28;20045;-66
2023/08/29 10:40:20;;;;;;;4.47;2.00;;;;;;;21.32;64.52;100849.00;4980727;28;20038;-66
2023/08/29 10:43:00;;;;;;;2.65;1.90;;;;;;;21.29;61.47;100849.47;4970872;28;20069;-66
2023/08/29 10:45:49;;;;;;;3.42;2.25;;;;;;;21.31;62.65;100855.31;4984466;28;20467;-66
2023/08/29 10:48:17;;;;;;;2.95;1.08;;;;;;;21.51;62.94;100852.38;4968109;28;20077;-66
2023/08/29 10:50:47;;;;;;;2.53;1.40;;;;;;;21.56;63.48;100850.66;4983223;28;20030;-67
2023/08/29 10:53:21;;;;;;;2.13;1.73;;;;;;;21.19;63.53;100856.09;4952735;28;20031;-66
2023/08/29 10:55:59;;;;;;;4.00;1.90;;;;;;;21.04;65.83;100854.88;4952588;28;20038;-68
2023/08/29 10:58:50;;;;;;;3.60;1.35;;;;;;;21.08;65.69;100848.13;4981964;28;20117;-66
2023/08/29 11:01:28;;;;;;;6.22;2.05;;;;;;;21.04;65.89;100844.31;4966697;28;20045;-67
2023/08/29 11:03:55;;;;;;;3.08;1.60;;;;;;;21.08;67.09;100845.47;4985167;28;20127;-66
2023/08/29 11:06:23;;;;;;;3.08;2.10;;;;;;;21.09;68.02;100845.25;4982959;28;20408;-66
2023/08/29 11:08:49;;;;;;;3.22;1.80;;;;;;;21.06;67.60;100839.63;4969516;28;20045;-66
2023/08/29 11:11:20;;;;;;;3.15;1.67;;;;;;;21.31;66.23;100845.56;4966342;28;20046;-66
2023/08/29 11:14:01;;;;;;;4.90;2.30;;;;;;;21.47;66.40;100843.31;4965259;28;20034;-66
2023/08/29 11:16:34;;;;;;;2.75;1.95;;;;;;;21.46;64.73;100841.72;4965346;28;20038;-66